sensor_id;sensor_type;location;lat;lon;timestamp;pressure;altitude;pressure_sealevel;temperature;humidity
64139;BME280;50435;43.700;-79.318;2023-03-23T00:01:31;100407.53;;;5.16;43.53
64139;BME280;50435;43.700;-79.318;2023-03-23T00:03:59;100404.51;;;5.35;43.44
64139;BME280;50435;43.700;-79.318;2023-03-23T00:06:28;100405.79;;;5.08;43.53
64139;BME280;50435;43.700;-79.318;2023-03-23T00:08:55;100399.42;;;5.29;43.71
64139;BME280;50435;43.700;-79.318;2023-03-23T00:11:24;100397.09;;;5.27;43.82
64139;BME280;50435;43.700;-79.318;2023-03-23T00:13:53;100380.93;;;5.29;43.72
64139;BME280;50435;43.700;-79.318;2023-03-23T00:16:22;100378.93;;;4.88;43.68
64139;BME280;50435;43.700;-79.318;2023-03-23T00:18:51;100379.74;;;5.35;43.61
64139;BME280;50435;43.700;-79.318;2023-03-23T00:21:19;100370.76;;;4.83;43.56
64139;BME280;50435;43.700;-79.318;2023-03-23T00:23:47;100354.84;;;5.33;43.53
64139;BME280;50435;43.700;-79.318;2023-03-23T00:26:15;100356.08;;;4.85;43.74
64139;BME280;50435;43.700;-79.318;2023-03-23T00:28:42;100365.45;;;5.36;43.58
64139;BME280;50435;43.700;-79.318;2023-03-23T00:31:10;100377.42;;;4.43;43.50
64139;BME280;50435;43.700;-79.318;2023-03-23T00:33:38;100389.38;;;5.33;43.55
64139;BME280;50435;43.700;-79.318;2023-03-23T00:36:06;100384.37;;;4.08;43.77
64139;BME280;50435;43.700;-79.318;2023-03-23T00:38:35;100386.85;;;5.12;43.69
64139;BME280;50435;43.700;-79.318;2023-03-23T00:41:04;100379.16;;;4.45;43.61
64139;BME280;50435;43.700;-79.318;2023-03-23T00:43:32;100379.20;;;4.90;43.65
64139;BME280;50435;43.700;-79.318;2023-03-23T00:45:59;100371.57;;;5.40;43.57
64139;BME280;50435;43.700;-79.318;2023-03-23T00:48:28;100368.00;;;4.99;43.54
64139;BME280;50435;43.700;-79.318;2023-03-23T00:50:56;100360.77;;;5.20;43.52
64139;BME280;50435;43.700;-79.318;2023-03-23T00:53:24;100362.40;;;4.98;43.51
64139;BME280;50435;43.700;-79.318;2023-03-23T00:55:51;100356.40;;;5.17;43.61
64139;BME280;50435;43.700;-79.318;2023-03-23T00:58:22;100355.67;;;4.98;43.67
64139;BME280;50435;43.700;-79.318;2023-03-23T01:00:49;100352.59;;;5.20;43.71
64139;BME280;50435;43.700;-79.318;2023-03-23T01:03:17;100360.16;;;4.92;43.82
64139;BME280;50435;43.700;-79.318;2023-03-23T01:05:45;100356.27;;;5.12;43.87
64139;BME280;50435;43.700;-79.318;2023-03-23T01:08:13;100355.82;;;4.45;43.80
64139;BME280;50435;43.700;-79.318;2023-03-23T01:10:41;100353.89;;;5.22;43.71
64139;BME280;50435;43.700;-79.318;2023-03-23T01:13:09;100351.27;;;4.51;43.73
64139;BME280;50435;43.700;-79.318;2023-03-23T01:15:36;100343.69;;;5.22;43.71
64139;BME280;50435;43.700;-79.318;2023-03-23T01:18:04;100339.71;;;3.97;43.90
64139;BME280;50435;43.700;-79.318;2023-03-23T01:20:32;100342.57;;;5.17;44.02
64139;BME280;50435;43.700;-79.318;2023-03-23T01:23:02;100343.12;;;4.48;43.97
64139;BME280;50435;43.700;-79.318;2023-03-23T01:25:32;100351.73;;;5.19;44.04
64139;BME280;50435;43.700;-79.318;2023-03-23T01:28:00;100359.51;;;5.00;43.97
64139;BME280;50435;43.700;-79.318;2023-03-23T01:30:27;100360.39;;;4.96;44.18
64139;BME280;50435;43.700;-79.318;2023-03-23T01:32:55;100350.84;;;5.18;44.10
64139;BME280;50435;43.700;-79.318;2023-03-23T01:35:22;100343.42;;;5.20;44.25
64139;BME280;50435;43.700;-79.318;2023-03-23T01:37:51;100330.73;;;5.24;44.10
64139;BME280;50435;43.700;-79.318;2023-03-23T01:40:18;100325.73;;;5.04;44.24
64139;BME280;50435;43.700;-79.318;2023-03-23T01:42:45;100324.36;;;5.47;44.05
64139;BME280;50435;43.700;-79.318;2023-03-23T01:45:29;100324.22;;;4.57;44.18
64139;BME280;50435;43.700;-79.318;2023-03-23T01:48:02;100329.03;;;5.54;44.18
64139;BME280;50435;43.700;-79.318;2023-03-23T01:50:34;100325.20;;;5.56;44.10
64139;BME280;50435;43.700;-79.318;2023-03-23T01:53:05;100326.68;;;4.33;44.31
64139;BME280;50435;43.700;-79.318;2023-03-23T01:55:33;100330.29;;;5.15;44.23
64139;BME280;50435;43.700;-79.318;2023-03-23T01:58:03;100317.33;;;4.17;44.16
64139;BME280;50435;43.700;-79.318;2023-03-23T02:00:31;100303.71;;;5.13;44.32
64139;BME280;50435;43.700;-79.318;2023-03-23T02:03:00;100304.96;;;5.56;44.22
64139;BME280;50435;43.700;-79.318;2023-03-23T02:05:31;100307.25;;;5.41;44.30
64139;BME280;50435;43.700;-79.318;2023-03-23T02:08:00;100291.87;;;5.60;44.57
64139;BME280;50435;43.700;-79.318;2023-03-23T02:10:30;100294.59;;;5.40;44.85
64139;BME280;50435;43.700;-79.318;2023-03-23T02:12:59;100287.61;;;5.61;44.73
64139;BME280;50435;43.700;-79.318;2023-03-23T02:15:32;100292.88;;;5.13;45.06
64139;BME280;50435;43.700;-79.318;2023-03-23T02:18:06;100285.81;;;4.70;44.19
64139;BME280;50435;43.700;-79.318;2023-03-23T02:20:52;100274.56;;;5.40;44.21
64139;BME280;50435;43.700;-79.318;2023-03-23T02:25:58;100271.87;;;5.50;44.20
64139;BME280;50435;43.700;-79.318;2023-03-23T02:28:45;100279.42;;;5.15;44.61
64139;BME280;50435;43.700;-79.318;2023-03-23T02:31:37;100275.96;;;5.33;44.48
64139;BME280;50435;43.700;-79.318;2023-03-23T02:34:10;100263.44;;;3.71;44.00
64139;BME280;50435;43.700;-79.318;2023-03-23T02:36:40;100268.80;;;5.18;44.77
64139;BME280;50435;43.700;-79.318;2023-03-23T02:39:13;100264.78;;;4.92;44.87
64139;BME280;50435;43.700;-79.318;2023-03-23T02:41:47;100265.87;;;5.38;44.70
64139;BME280;50435;43.700;-79.318;2023-03-23T02:44:17;100265.05;;;5.20;43.84
64139;BME280;50435;43.700;-79.318;2023-03-23T02:46:45;100270.34;;;5.43;43.79
64139;BME280;50435;43.700;-79.318;2023-03-23T02:49:15;100253.48;;;4.96;43.89
64139;BME280;50435;43.700;-79.318;2023-03-23T02:51:45;100244.36;;;5.23;43.97
64139;BME280;50435;43.700;-79.318;2023-03-23T02:54:15;100246.59;;;4.75;45.28
64139;BME280;50435;43.700;-79.318;2023-03-23T02:56:45;100248.94;;;5.52;45.02
64139;BME280;50435;43.700;-79.318;2023-03-23T02:59:13;100245.20;;;4.86;45.08
64139;BME280;50435;43.700;-79.318;2023-03-23T03:02:15;100248.70;;;5.34;45.77
64139;BME280;50435;43.700;-79.318;2023-03-23T03:04:48;100249.42;;;5.32;46.15
64139;BME280;50435;43.700;-79.318;2023-03-23T03:07:28;100220.41;;;5.35;45.17
64139;BME280;50435;43.700;-79.318;2023-03-23T03:09:59;100220.91;;;5.66;45.84
64139;BME280;50435;43.700;-79.318;2023-03-23T03:12:36;100226.09;;;5.45;46.07
64139;BME280;50435;43.700;-79.318;2023-03-23T03:15:17;100220.12;;;4.21;46.11
64139;BME280;50435;43.700;-79.318;2023-03-23T03:17:53;100223.05;;;5.89;46.41
64139;BME280;50435;43.700;-79.318;2023-03-23T03:20:26;100222.51;;;5.46;46.00
64139;BME280;50435;43.700;-79.318;2023-03-23T03:22:55;100224.51;;;5.91;45.98
64139;BME280;50435;43.700;-79.318;2023-03-23T03:25:23;100226.89;;;4.96;46.78
64139;BME280;50435;43.700;-79.318;2023-03-23T03:27:52;100232.32;;;5.65;46.78
64139;BME280;50435;43.700;-79.318;2023-03-23T03:30:24;100230.86;;;5.69;46.47
64139;BME280;50435;43.700;-79.318;2023-03-23T03:32:53;100221.45;;;5.72;46.92
64139;BME280;50435;43.700;-79.318;2023-03-23T03:35:22;100211.16;;;5.48;46.14
64139;BME280;50435;43.700;-79.318;2023-03-23T03:37:51;100209.76;;;5.59;46.40
64139;BME280;50435;43.700;-79.318;2023-03-23T03:40:20;100208.46;;;5.06;46.57
64139;BME280;50435;43.700;-79.318;2023-03-23T03:42:48;100204.97;;;5.58;46.35
64139;BME280;50435;43.700;-79.318;2023-03-23T03:45:18;100209.17;;;5.53;46.65
64139;BME280;50435;43.700;-79.318;2023-03-23T03:47:46;100211.03;;;5.99;46.63
64139;BME280;50435;43.700;-79.318;2023-03-23T03:50:13;100196.35;;;4.91;46.30
64139;BME280;50435;43.700;-79.318;2023-03-23T03:52:41;100190.04;;;5.42;46.26
64139;BME280;50435;43.700;-79.318;2023-03-23T03:55:10;100175.85;;;3.90;46.03
64139;BME280;50435;43.700;-79.318;2023-03-23T03:57:38;100170.86;;;5.57;45.86
64139;BME280;50435;43.700;-79.318;2023-03-23T04:00:07;100180.92;;;4.58;46.38
64139;BME280;50435;43.700;-79.318;2023-03-23T04:02:35;100187.66;;;5.54;46.48
64139;BME280;50435;43.700;-79.318;2023-03-23T04:05:03;100181.90;;;5.03;46.41
64139;BME280;50435;43.700;-79.318;2023-03-23T04:07:30;100181.66;;;5.75;46.77
64139;BME280;50435;43.700;-79.318;2023-03-23T04:09:58;100182.72;;;5.75;46.91
64139;BME280;50435;43.700;-79.318;2023-03-23T04:12:26;100184.54;;;5.55;46.18
64139;BME280;50435;43.700;-79.318;2023-03-23T04:14:53;100176.72;;;5.55;46.26
64139;BME280;50435;43.700;-79.318;2023-03-23T04:17:21;100164.36;;;5.56;45.33
64139;BME280;50435;43.700;-79.318;2023-03-23T04:19:48;100171.22;;;5.78;46.41
64139;BME280;50435;43.700;-79.318;2023-03-23T04:22:15;100169.41;;;5.11;46.14
64139;BME280;50435;43.700;-79.318;2023-03-23T04:24:43;100168.49;;;5.37;46.24
64139;BME280;50435;43.700;-79.318;2023-03-23T04:27:10;100167.04;;;5.16;46.48
64139;BME280;50435;43.700;-79.318;2023-03-23T04:29:38;100169.35;;;5.74;46.73
64139;BME280;50435;43.700;-79.318;2023-03-23T04:32:05;100166.09;;;4.61;46.61
64139;BME280;50435;43.700;-79.318;2023-03-23T04:34:33;100169.73;;;5.85;46.53
64139;BME280;50435;43.700;-79.318;2023-03-23T04:37:00;100165.72;;;5.78;46.36
64139;BME280;50435;43.700;-79.318;2023-03-23T04:39:28;100158.13;;;5.77;46.38
64139;BME280;50435;43.700;-79.318;2023-03-23T04:41:56;100150.47;;;6.07;46.33
64139;BME280;50435;43.700;-79.318;2023-03-23T04:44:24;100144.28;;;5.81;46.55
64139;BME280;50435;43.700;-79.318;2023-03-23T04:46:51;100149.38;;;5.83;46.78
64139;BME280;50435;43.700;-79.318;2023-03-23T04:49:19;100149.47;;;5.55;47.12
64139;BME280;50435;43.700;-79.318;2023-03-23T04:51:47;100148.27;;;5.86;46.46
64139;BME280;50435;43.700;-79.318;2023-03-23T04:54:15;100146.74;;;5.40;46.71
64139;BME280;50435;43.700;-79.318;2023-03-23T04:56:42;100146.80;;;6.30;46.96
64139;BME280;50435;43.700;-79.318;2023-03-23T04:59:09;100152.39;;;5.14;47.09
64139;BME280;50435;43.700;-79.318;2023-03-23T05:01:37;100144.18;;;5.88;47.08
64139;BME280;50435;43.700;-79.318;2023-03-23T05:04:04;100136.03;;;4.90;45.95
64139;BME280;50435;43.700;-79.318;2023-03-23T05:06:32;100129.16;;;6.09;45.58
64139;BME280;50435;43.700;-79.318;2023-03-23T05:08:59;100129.59;;;5.87;47.01
64139;BME280;50435;43.700;-79.318;2023-03-23T05:11:27;100126.17;;;5.38;46.67
64139;BME280;50435;43.700;-79.318;2023-03-23T05:13:55;100117.97;;;5.71;45.89
64139;BME280;50435;43.700;-79.318;2023-03-23T05:16:22;100121.25;;;5.48;46.75
64139;BME280;50435;43.700;-79.318;2023-03-23T05:18:49;100124.91;;;5.94;47.19
64139;BME280;50435;43.700;-79.318;2023-03-23T05:21:17;100129.02;;;5.60;47.17
64139;BME280;50435;43.700;-79.318;2023-03-23T05:23:44;100122.84;;;5.91;47.24
64139;BME280;50435;43.700;-79.318;2023-03-23T05:26:12;100119.93;;;4.98;46.40
64139;BME280;50435;43.700;-79.318;2023-03-23T05:28:40;100119.47;;;6.02;47.20
64139;BME280;50435;43.700;-79.318;2023-03-23T05:31:07;100113.80;;;4.45;47.39
64139;BME280;50435;43.700;-79.318;2023-03-23T05:33:34;100105.32;;;6.16;46.97
64139;BME280;50435;43.700;-79.318;2023-03-23T05:36:01;100098.65;;;5.43;47.23
64139;BME280;50435;43.700;-79.318;2023-03-23T05:38:28;100091.65;;;5.94;47.54
64139;BME280;50435;43.700;-79.318;2023-03-23T05:40:58;100088.71;;;5.96;47.52
64139;BME280;50435;43.700;-79.318;2023-03-23T05:43:26;100088.48;;;5.94;47.80
64139;BME280;50435;43.700;-79.318;2023-03-23T05:45:54;100090.86;;;5.96;47.81
64139;BME280;50435;43.700;-79.318;2023-03-23T05:48:21;100095.15;;;5.52;47.30
64139;BME280;50435;43.700;-79.318;2023-03-23T05:50:49;100091.44;;;5.99;47.04
64139;BME280;50435;43.700;-79.318;2023-03-23T05:53:16;100090.57;;;5.43;48.27
64139;BME280;50435;43.700;-79.318;2023-03-23T05:55:44;100086.33;;;6.02;47.42
64139;BME280;50435;43.700;-79.318;2023-03-23T05:58:11;100085.65;;;5.54;47.74
64139;BME280;50435;43.700;-79.318;2023-03-23T06:00:39;100084.71;;;6.02;47.71
64139;BME280;50435;43.700;-79.318;2023-03-23T06:03:06;100083.04;;;4.63;47.21
64139;BME280;50435;43.700;-79.318;2023-03-23T06:05:34;100088.95;;;3.81;45.42
64139;BME280;50435;43.700;-79.318;2023-03-23T06:08:02;100084.18;;;7.25;42.48
64139;BME280;50435;43.700;-79.318;2023-03-23T06:10:29;100070.68;;;5.14;44.05
64139;BME280;50435;43.700;-79.318;2023-03-23T06:12:57;100060.81;;;7.06;44.39
64139;BME280;50435;43.700;-79.318;2023-03-23T06:15:24;100052.47;;;6.18;43.75
64139;BME280;50435;43.700;-79.318;2023-03-23T06:17:51;100043.87;;;4.99;42.29
64139;BME280;50435;43.700;-79.318;2023-03-23T06:20:19;100039.49;;;6.29;41.78
64139;BME280;50435;43.700;-79.318;2023-03-23T06:22:46;100040.95;;;6.91;42.95
64139;BME280;50435;43.700;-79.318;2023-03-23T06:25:13;100039.68;;;4.91;42.71
64139;BME280;50435;43.700;-79.318;2023-03-23T06:27:41;100033.76;;;6.64;44.25
64139;BME280;50435;43.700;-79.318;2023-03-23T06:30:09;100036.10;;;6.49;44.89
64139;BME280;50435;43.700;-79.318;2023-03-23T06:32:38;100027.30;;;6.37;45.07
64139;BME280;50435;43.700;-79.318;2023-03-23T06:35:06;100028.71;;;5.41;45.16
64139;BME280;50435;43.700;-79.318;2023-03-23T06:37:34;100024.53;;;5.91;44.17
64139;BME280;50435;43.700;-79.318;2023-03-23T06:40:02;100024.85;;;7.12;43.84
64139;BME280;50435;43.700;-79.318;2023-03-23T06:42:30;100027.53;;;6.39;45.50
64139;BME280;50435;43.700;-79.318;2023-03-23T06:44:58;100020.36;;;6.67;45.77
64139;BME280;50435;43.700;-79.318;2023-03-23T06:47:26;100011.06;;;5.60;45.51
64139;BME280;50435;43.700;-79.318;2023-03-23T06:49:53;99999.31;;;6.52;45.97
64139;BME280;50435;43.700;-79.318;2023-03-23T06:52:20;99977.33;;;6.03;46.33
64139;BME280;50435;43.700;-79.318;2023-03-23T06:54:48;99960.67;;;5.91;45.21
64139;BME280;50435;43.700;-79.318;2023-03-23T06:57:16;99951.12;;;6.67;44.77
64139;BME280;50435;43.700;-79.318;2023-03-23T06:59:44;99940.32;;;5.59;43.07
64139;BME280;50435;43.700;-79.318;2023-03-23T07:02:12;99944.39;;;7.45;42.98
64139;BME280;50435;43.700;-79.318;2023-03-23T07:04:40;99940.89;;;5.95;43.12
64139;BME280;50435;43.700;-79.318;2023-03-23T07:07:09;99943.57;;;7.01;44.25
64139;BME280;50435;43.700;-79.318;2023-03-23T07:09:37;99939.18;;;5.58;47.98
64139;BME280;50435;43.700;-79.318;2023-03-23T07:12:05;99938.90;;;6.66;46.58
64139;BME280;50435;43.700;-79.318;2023-03-23T07:14:33;99939.02;;;4.28;47.44
64139;BME280;50435;43.700;-79.318;2023-03-23T07:17:00;99930.35;;;5.63;44.56
64139;BME280;50435;43.700;-79.318;2023-03-23T07:19:29;99931.10;;;7.51;43.86
64139;BME280;50435;43.700;-79.318;2023-03-23T07:21:57;99932.18;;;5.71;46.48
64139;BME280;50435;43.700;-79.318;2023-03-23T07:24:25;99934.22;;;7.26;46.92
64139;BME280;50435;43.700;-79.318;2023-03-23T07:26:52;99924.76;;;6.50;46.52
64139;BME280;50435;43.700;-79.318;2023-03-23T07:29:19;99913.23;;;5.67;46.79
64139;BME280;50435;43.700;-79.318;2023-03-23T07:31:47;99900.95;;;7.30;46.12
64139;BME280;50435;43.700;-79.318;2023-03-23T07:34:14;99887.69;;;6.64;45.32
64139;BME280;50435;43.700;-79.318;2023-03-23T07:36:41;99882.93;;;7.34;46.82
64139;BME280;50435;43.700;-79.318;2023-03-23T07:39:08;99876.40;;;6.55;46.64
64139;BME280;50435;43.700;-79.318;2023-03-23T07:41:36;99868.89;;;6.77;46.00
64139;BME280;50435;43.700;-79.318;2023-03-23T07:44:04;99866.55;;;6.13;45.43
64139;BME280;50435;43.700;-79.318;2023-03-23T07:46:33;99853.88;;;6.71;46.29
64139;BME280;50435;43.700;-79.318;2023-03-23T07:49:00;99844.01;;;6.38;45.75
64139;BME280;50435;43.700;-79.318;2023-03-23T07:51:27;99836.94;;;6.79;45.30
64139;BME280;50435;43.700;-79.318;2023-03-23T07:53:54;99817.98;;;6.41;45.96
64139;BME280;50435;43.700;-79.318;2023-03-23T07:56:22;99811.56;;;6.29;46.29
64139;BME280;50435;43.700;-79.318;2023-03-23T07:58:50;99810.51;;;7.37;46.82
64139;BME280;50435;43.700;-79.318;2023-03-23T08:01:17;99803.80;;;6.87;47.13
64139;BME280;50435;43.700;-79.318;2023-03-23T08:03:45;99805.44;;;4.87;46.25
64139;BME280;50435;43.700;-79.318;2023-03-23T08:06:12;99802.49;;;6.34;46.11
64139;BME280;50435;43.700;-79.318;2023-03-23T08:08:39;99801.38;;;6.92;45.46
64139;BME280;50435;43.700;-79.318;2023-03-23T08:11:07;99805.13;;;6.17;46.56
64139;BME280;50435;43.700;-79.318;2023-03-23T08:13:34;99799.08;;;6.76;46.05
64139;BME280;50435;43.700;-79.318;2023-03-23T08:16:02;99794.29;;;6.32;46.52
64139;BME280;50435;43.700;-79.318;2023-03-23T08:18:30;99792.09;;;5.55;45.66
64139;BME280;50435;43.700;-79.318;2023-03-23T08:20:58;99780.69;;;6.83;45.52
64139;BME280;50435;43.700;-79.318;2023-03-23T08:23:26;99764.53;;;6.91;45.76
64139;BME280;50435;43.700;-79.318;2023-03-23T08:25:53;99739.35;;;6.71;45.24
64139;BME280;50435;43.700;-79.318;2023-03-23T08:28:20;99731.98;;;6.53;44.84
64139;BME280;50435;43.700;-79.318;2023-03-23T08:30:47;99744.06;;;7.57;43.77
64139;BME280;50435;43.700;-79.318;2023-03-23T08:33:15;99745.78;;;6.71;47.12
64139;BME280;50435;43.700;-79.318;2023-03-23T08:35:43;99745.05;;;6.37;47.43
64139;BME280;50435;43.700;-79.318;2023-03-23T08:38:11;99749.62;;;6.38;48.33
64139;BME280;50435;43.700;-79.318;2023-03-23T08:40:39;99747.83;;;6.01;48.28
64139;BME280;50435;43.700;-79.318;2023-03-23T08:43:06;99748.04;;;6.45;49.62
64139;BME280;50435;43.700;-79.318;2023-03-23T08:45:34;99746.49;;;5.97;49.42
64139;BME280;50435;43.700;-79.318;2023-03-23T08:48:02;99748.06;;;6.42;49.35
64139;BME280;50435;43.700;-79.318;2023-03-23T08:50:29;99744.57;;;5.62;49.91
64139;BME280;50435;43.700;-79.318;2023-03-23T08:52:57;99732.05;;;6.07;50.44
64139;BME280;50435;43.700;-79.318;2023-03-23T08:55:25;99719.58;;;4.68;50.05
64139;BME280;50435;43.700;-79.318;2023-03-23T08:57:53;99702.07;;;6.40;49.24
64139;BME280;50435;43.700;-79.318;2023-03-23T09:00:22;99688.85;;;5.15;49.37
64139;BME280;50435;43.700;-79.318;2023-03-23T09:02:51;99690.59;;;5.86;49.19
64139;BME280;50435;43.700;-79.318;2023-03-23T09:05:21;99690.14;;;5.65;49.23
64139;BME280;50435;43.700;-79.318;2023-03-23T09:07:50;99691.53;;;6.40;48.81
64139;BME280;50435;43.700;-79.318;2023-03-23T09:10:19;99689.53;;;6.12;49.02
64139;BME280;50435;43.700;-79.318;2023-03-23T09:12:47;99690.24;;;5.91;49.25
64139;BME280;50435;43.700;-79.318;2023-03-23T09:15:17;99694.12;;;6.63;49.17
64139;BME280;50435;43.700;-79.318;2023-03-23T09:17:46;99696.72;;;6.38;49.75
64139;BME280;50435;43.700;-79.318;2023-03-23T09:20:15;99696.47;;;6.62;49.92
64139;BME280;50435;43.700;-79.318;2023-03-23T09:22:45;99695.94;;;6.05;49.84
64139;BME280;50435;43.700;-79.318;2023-03-23T09:25:16;99686.22;;;6.28;50.04
64139;BME280;50435;43.700;-79.318;2023-03-23T09:27:44;99679.21;;;6.06;49.07
64139;BME280;50435;43.700;-79.318;2023-03-23T09:30:13;99666.28;;;5.14;47.61
64139;BME280;50435;43.700;-79.318;2023-03-23T09:32:41;99663.51;;;4.45;46.45
64139;BME280;50435;43.700;-79.318;2023-03-23T09:35:09;99655.82;;;6.36;45.00
64139;BME280;50435;43.700;-79.318;2023-03-23T09:37:37;99661.52;;;6.61;44.84
64139;BME280;50435;43.700;-79.318;2023-03-23T09:40:07;99662.13;;;7.07;45.83
64139;BME280;50435;43.700;-79.318;2023-03-23T09:42:46;99656.94;;;6.91;45.53
64139;BME280;50435;43.700;-79.318;2023-03-23T09:45:22;99666.22;;;7.05;44.95
64139;BME280;50435;43.700;-79.318;2023-03-23T09:48:05;99669.72;;;6.33;45.54
64139;BME280;50435;43.700;-79.318;2023-03-23T09:50:35;99677.83;;;6.27;46.27
64139;BME280;50435;43.700;-79.318;2023-03-23T09:53:12;99688.08;;;7.45;44.25
64139;BME280;50435;43.700;-79.318;2023-03-23T09:55:41;99692.91;;;7.12;44.82
64139;BME280;50435;43.700;-79.318;2023-03-23T09:58:14;99707.05;;;5.68;45.29
64139;BME280;50435;43.700;-79.318;2023-03-23T10:00:55;99710.61;;;5.32;47.17
64139;BME280;50435;43.700;-79.318;2023-03-23T10:03:27;99715.75;;;7.10;48.03
64139;BME280;50435;43.700;-79.318;2023-03-23T10:05:57;99720.16;;;5.26;49.18
64139;BME280;50435;43.700;-79.318;2023-03-23T10:08:27;99718.84;;;6.87;49.07
64139;BME280;50435;43.700;-79.318;2023-03-23T10:10:59;99721.61;;;6.80;47.81
64139;BME280;50435;43.700;-79.318;2023-03-23T10:13:42;99713.74;;;6.41;47.87
64139;BME280;50435;43.700;-79.318;2023-03-23T10:16:17;99706.96;;;5.32;47.57
64139;BME280;50435;43.700;-79.318;2023-03-23T10:18:51;99697.25;;;6.78;46.10
64139;BME280;50435;43.700;-79.318;2023-03-23T10:21:23;99691.46;;;5.07;45.21
64139;BME280;50435;43.700;-79.318;2023-03-23T10:23:55;99674.92;;;8.10;45.19
64139;BME280;50435;43.700;-79.318;2023-03-23T10:26:31;99654.78;;;7.71;47.09
64139;BME280;50435;43.700;-79.318;2023-03-23T10:29:08;99620.41;;;6.88;49.22
64139;BME280;50435;43.700;-79.318;2023-03-23T10:31:40;99623.10;;;6.08;51.24
64139;BME280;50435;43.700;-79.318;2023-03-23T10:34:12;99652.91;;;6.40;51.80
64139;BME280;50435;43.700;-79.318;2023-03-23T10:36:55;99640.36;;;5.85;53.07
64139;BME280;50435;43.700;-79.318;2023-03-23T10:39:27;99635.30;;;6.63;52.50
64139;BME280;50435;43.700;-79.318;2023-03-23T10:41:56;99641.37;;;6.35;52.99
64139;BME280;50435;43.700;-79.318;2023-03-23T10:44:25;99638.70;;;6.37;53.50
64139;BME280;50435;43.700;-79.318;2023-03-23T10:46:58;99635.94;;;6.34;53.22
64139;BME280;50435;43.700;-79.318;2023-03-23T10:49:30;99617.04;;;6.27;53.95
64139;BME280;50435;43.700;-79.318;2023-03-23T10:52:03;99610.71;;;6.19;54.24
64139;BME280;50435;43.700;-79.318;2023-03-23T10:54:37;99598.67;;;5.74;54.50
64139;BME280;50435;43.700;-79.318;2023-03-23T10:57:20;99597.25;;;6.27;54.22
64139;BME280;50435;43.700;-79.318;2023-03-23T10:59:48;99598.99;;;6.36;53.59
64139;BME280;50435;43.700;-79.318;2023-03-23T11:02:18;99592.25;;;6.55;54.25
64139;BME280;50435;43.700;-79.318;2023-03-23T11:04:55;99575.78;;;4.03;52.35
64139;BME280;50435;43.700;-79.318;2023-03-23T11:07:27;99566.91;;;5.19;49.27
64139;BME280;50435;43.700;-79.318;2023-03-23T11:09:56;99555.44;;;6.41;46.46
64139;BME280;50435;43.700;-79.318;2023-03-23T11:12:24;99558.10;;;6.91;47.51
64139;BME280;50435;43.700;-79.318;2023-03-23T11:14:52;99552.08;;;6.70;48.14
64139;BME280;50435;43.700;-79.318;2023-03-23T11:17:30;99538.92;;;6.90;48.73
64139;BME280;50435;43.700;-79.318;2023-03-23T11:19:57;99527.02;;;5.78;48.25
64139;BME280;50435;43.700;-79.318;2023-03-23T11:22:27;99521.68;;;6.53;47.84
64139;BME280;50435;43.700;-79.318;2023-03-23T11:24:59;99529.33;;;7.74;48.60
64139;BME280;50435;43.700;-79.318;2023-03-23T11:27:27;99548.94;;;7.82;49.56
64139;BME280;50435;43.700;-79.318;2023-03-23T11:29:58;99562.60;;;7.40;51.93
64139;BME280;50435;43.700;-79.318;2023-03-23T11:32:29;99571.40;;;6.14;52.89
64139;BME280;50435;43.700;-79.318;2023-03-23T11:34:58;99581.15;;;7.72;49.92
64139;BME280;50435;43.700;-79.318;2023-03-23T11:37:32;99586.79;;;5.19;49.78
64139;BME280;50435;43.700;-79.318;2023-03-23T11:40:01;99587.17;;;6.37;47.38
64139;BME280;50435;43.700;-79.318;2023-03-23T11:42:36;99572.76;;;6.33;46.50
64139;BME280;50435;43.700;-79.318;2023-03-23T11:45:17;99556.28;;;6.69;46.49
64139;BME280;50435;43.700;-79.318;2023-03-23T11:47:53;99545.62;;;8.16;47.87
64139;BME280;50435;43.700;-79.318;2023-03-23T11:50:25;99519.18;;;6.30;48.74
64139;BME280;50435;43.700;-79.318;2023-03-23T11:53:00;99524.97;;;7.86;49.18
64139;BME280;50435;43.700;-79.318;2023-03-23T11:55:33;99517.99;;;7.96;50.53
64139;BME280;50435;43.700;-79.318;2023-03-23T11:58:11;99502.12;;;6.84;50.72
64139;BME280;50435;43.700;-79.318;2023-03-23T12:00:44;99514.60;;;7.70;51.33
64139;BME280;50435;43.700;-79.318;2023-03-23T12:03:56;99525.72;;;6.51;50.07
64139;BME280;50435;43.700;-79.318;2023-03-23T12:06:35;99524.26;;;8.15;49.33
64139;BME280;50435;43.700;-79.318;2023-03-23T12:09:15;99534.71;;;8.04;51.41
64139;BME280;50435;43.700;-79.318;2023-03-23T12:11:57;99542.79;;;7.25;52.83
64139;BME280;50435;43.700;-79.318;2023-03-23T12:14:32;99541.09;;;6.32;53.81
64139;BME280;50435;43.700;-79.318;2023-03-23T12:17:10;99533.52;;;5.79;51.38
64139;BME280;50435;43.700;-79.318;2023-03-23T12:19:46;99524.78;;;6.54;50.10
64139;BME280;50435;43.700;-79.318;2023-03-23T12:22:27;99517.11;;;5.80;50.59
64139;BME280;50435;43.700;-79.318;2023-03-23T12:25:09;99516.82;;;6.15;48.43
64139;BME280;50435;43.700;-79.318;2023-03-23T12:27:47;99517.15;;;8.32;46.60
64139;BME280;50435;43.700;-79.318;2023-03-23T12:30:27;99520.76;;;8.88;47.92
64139;BME280;50435;43.700;-79.318;2023-03-23T12:33:08;99514.23;;;7.92;48.40
64139;BME280;50435;43.700;-79.318;2023-03-23T12:35:48;99505.23;;;7.27;48.66
64139;BME280;50435;43.700;-79.318;2023-03-23T12:38:27;99499.48;;;7.98;49.34
64139;BME280;50435;43.700;-79.318;2023-03-23T12:41:05;99510.58;;;6.16;49.58
64139;BME280;50435;43.700;-79.318;2023-03-23T12:43:46;99517.99;;;8.34;48.76
64139;BME280;50435;43.700;-79.318;2023-03-23T12:47:29;99520.43;;;7.25;50.04
64139;BME280;50435;43.700;-79.318;2023-03-23T12:50:03;99522.22;;;7.42;48.36
64139;BME280;50435;43.700;-79.318;2023-03-23T12:52:37;99517.93;;;8.51;49.97
64139;BME280;50435;43.700;-79.318;2023-03-23T12:55:15;99515.21;;;7.71;51.11
64139;BME280;50435;43.700;-79.318;2023-03-23T12:57:48;99499.37;;;6.35;51.09
64139;BME280;50435;43.700;-79.318;2023-03-23T13:00:20;99479.04;;;6.92;50.35
64139;BME280;50435;43.700;-79.318;2023-03-23T13:02:55;99464.27;;;8.17;49.98
64139;BME280;50435;43.700;-79.318;2023-03-23T13:05:33;99471.79;;;8.01;50.77